This is the latest recevied weather packets stored in our database for station/object KF4WSW-13. If no packets are shown the sender has not sent any weather packets the latest 10 day(s).
| Time | Temp. | Humidity | Pressure | Rain* | Wind** | Luminosity | Snow |
|---|---|---|---|---|---|---|---|
| 1777314921 | 30° C | 59% | 1013.7 hPa | 0 mm | - | 249 W/m² | - |
| 1777314616 | 30.56° C | 56% | 1013.7 hPa | 0 mm | - | 237 W/m² | - |
| 1777314314 | 29.44° C | 62% | 1013.9 hPa | 0 mm | - | 894 W/m² | - |
| 1777314011 | 28.89° C | 64% | 1013.7 hPa | 0 mm | - | 657 W/m² | - |
| 1777313708 | 29.44° C | 65% | 1013.8 hPa | 0 mm | - | 218 W/m² | - |
| 1777313406 | 30.56° C | 58% | 1013.9 hPa | 0 mm | - | 183 W/m² | - |
| 1777313102 | 28.89° C | 61% | 1014 hPa | 0 mm | - | 832 W/m² | - |
| 1777312798 | 29.44° C | 64% | 1013.7 hPa | 0 mm | - | 738 W/m² | - |
| 1777312495 | 28.89° C | 60% | 1014 hPa | 0 mm | - | 414 W/m² | - |
| 1777312192 | 28.89° C | 62% | 1014.3 hPa | 0 mm | - | 230 W/m² | - |
| 1777311890 | 30° C | 58% | 1014.3 hPa | 0 mm | - | 162 W/m² | - |
| 1777311586 | 30° C | 61% | 1014.2 hPa | 0 mm | - | 427 W/m² | - |
| 1777311284 | 29.44° C | 66% | 1014.4 hPa | 0 mm | - | 889 W/m² | - |
| 1777310981 | 28.89° C | 60% | 1014.2 hPa | 0 mm | - | 183 W/m² | - |
| 1777310679 | 28.89° C | 61% | 1014.2 hPa | 0 mm | - | 237 W/m² | - |
| 1777310376 | 28.89° C | 59% | 1014.3 hPa | 0 mm | - | 898 W/m² | - |
| 1777310072 | 28.89° C | 61% | 1014.6 hPa | 0 mm | - | 198 W/m² | - |
| 1777309771 | 28.33° C | 63% | 1014.4 hPa | 0 mm | - | 803 W/m² | - |
| 1777309469 | 27.78° C | 65% | 1014.3 hPa | 0 mm | - | 138 W/m² | - |
| 1777309165 | 28.33° C | 65% | 1014.4 hPa | 0 mm | - | 128 W/m² | - |
| 1777308864 | 28.89° C | 63% | 1014.4 hPa | 0 mm | - | 252 W/m² | - |
| 1777308559 | 28.89° C | 63% | 1014.6 hPa | 0 mm | - | 911 W/m² | - |
| 1777308255 | 27.78° C | 66% | 1014.5 hPa | 0 mm | - | 874 W/m² | - |
| 1777307950 | 28.33° C | 65% | 1014.5 hPa | 0 mm | - | 882 W/m² | - |
| 1777307648 | 27.78° C | 68% | 1014.5 hPa | 0 mm | - | 228 W/m² | - |
* Rain latest hour (hover to see other rain measurements)
** Current wind speed in m/s (hover to see current wind gust speed)